createdAt,value
2024-02-22T00:01:17.306Z,10.17
2024-02-22T00:03:44.349Z,10.14
2024-02-22T00:06:11.320Z,10.10
2024-02-22T00:08:40.161Z,10.10
2024-02-22T00:11:07.154Z,10.10
2024-02-22T00:13:36.082Z,10.09
2024-02-22T00:16:04.924Z,10.10
2024-02-22T00:18:32.075Z,10.08
2024-02-22T00:20:59.025Z,10.08
2024-02-22T00:23:26.995Z,10.06
2024-02-22T00:25:53.944Z,10.02
2024-02-22T00:28:20.952Z,9.99
2024-02-22T00:30:47.867Z,9.99
2024-02-22T00:33:14.890Z,10.02
2024-02-22T00:35:41.824Z,10.05
2024-02-22T00:38:08.769Z,10.04
2024-02-22T00:40:35.857Z,10.01
2024-02-22T00:43:03.082Z,9.98
2024-02-22T00:45:30.854Z,9.97
2024-02-22T00:48:00.129Z,9.97
2024-02-22T00:50:32.257Z,9.97
2024-02-22T00:52:59.258Z,9.98
2024-02-22T00:55:26.132Z,10.01
2024-02-22T00:57:53.025Z,9.99
2024-02-22T01:00:19.955Z,9.97
2024-02-22T01:02:47.112Z,9.96
2024-02-22T01:05:14.219Z,9.97
2024-02-22T01:07:42.754Z,9.97
2024-02-22T01:10:10.290Z,9.99
2024-02-22T01:12:42.129Z,9.99
2024-02-22T01:15:09.919Z,9.97
2024-02-22T01:17:39.518Z,9.98
2024-02-22T01:20:12.495Z,9.98
2024-02-22T01:22:41.049Z,10.00
2024-02-22T01:25:09.453Z,10.00
2024-02-22T01:27:36.390Z,9.98
2024-02-22T01:30:04.616Z,10.00
2024-02-22T01:32:31.671Z,10.01
2024-02-22T01:34:58.613Z,10.01
2024-02-22T01:37:25.699Z,10.01
2024-02-22T01:39:52.564Z,9.98
2024-02-22T01:42:19.533Z,9.95
2024-02-22T01:44:46.824Z,9.93
2024-02-22T01:47:14.664Z,9.89
2024-02-22T01:49:41.937Z,9.86
2024-02-22T01:52:11.541Z,9.90
2024-02-22T01:54:38.846Z,9.92
2024-02-22T01:57:06.451Z,9.88
2024-02-22T01:59:34.054Z,9.89
2024-02-22T02:02:01.197Z,9.94
2024-02-22T02:04:29.334Z,9.93
2024-02-22T02:06:56.269Z,9.93
2024-02-22T02:09:23.095Z,9.95
2024-02-22T02:11:50.245Z,9.97
2024-02-22T02:14:17.331Z,10.01
2024-02-22T02:16:44.370Z,10.02
2024-02-22T02:19:21.162Z,10.02
2024-02-22T02:22:11.625Z,9.99
2024-02-22T02:24:55.086Z,9.95
2024-02-22T02:27:21.953Z,9.93
2024-02-22T02:29:48.760Z,9.98
2024-02-22T02:32:15.585Z,9.94
2024-02-22T02:34:42.705Z,9.86
2024-02-22T02:37:09.568Z,9.85
2024-02-22T02:39:36.373Z,9.86
2024-02-22T02:42:03.504Z,9.92
2024-02-22T02:44:30.365Z,9.92
2024-02-22T02:46:57.261Z,9.87
2024-02-22T02:49:24.356Z,9.88
2024-02-22T02:51:51.283Z,9.89
2024-02-22T02:54:18.068Z,9.88
2024-02-22T02:56:44.946Z,9.84
2024-02-22T02:59:13.374Z,9.82
2024-02-22T03:01:50.517Z,9.77
2024-02-22T03:04:18.685Z,9.69
2024-02-22T03:06:47.116Z,9.60
2024-02-22T03:09:14.300Z,9.57
2024-02-22T03:11:41.474Z,9.57
2024-02-22T03:14:10.766Z,9.54
2024-02-22T03:16:40.818Z,9.51
2024-02-22T03:19:07.804Z,9.44
2024-02-22T03:21:35.016Z,9.42
2024-02-22T03:24:01.981Z,9.44
2024-02-22T03:26:28.958Z,9.45
2024-02-22T03:28:55.908Z,9.44
2024-02-22T03:31:23.918Z,9.41
2024-02-22T03:33:51.520Z,9.37
2024-02-22T03:36:18.646Z,9.31
2024-02-22T03:38:45.584Z,9.33
2024-02-22T03:41:25.426Z,9.32
2024-02-22T03:43:53.693Z,9.29
2024-02-22T03:46:21.123Z,9.29
2024-02-22T03:48:47.950Z,9.27
2024-02-22T03:51:14.931Z,9.27
2024-02-22T03:53:41.808Z,9.26
2024-02-22T03:56:09.065Z,9.24
2024-02-22T03:58:36.170Z,9.26
2024-02-22T04:01:03.901Z,9.29
2024-02-22T04:03:32.424Z,9.30
2024-02-22T04:05:59.429Z,9.33
2024-02-22T04:08:26.337Z,9.30
2024-02-22T04:10:53.325Z,9.24
2024-02-22T04:13:20.261Z,9.25
2024-02-22T04:15:48.835Z,9.26
2024-02-22T04:18:15.944Z,9.24
2024-02-22T04:20:42.885Z,9.26
2024-02-22T04:23:09.795Z,9.27
2024-02-22T04:25:36.862Z,9.30
2024-02-22T04:28:04.813Z,9.25
2024-02-22T04:30:31.664Z,9.26
2024-02-22T04:32:58.626Z,9.26
2024-02-22T04:35:25.650Z,9.24
2024-02-22T04:37:54.375Z,9.30
2024-02-22T04:40:21.739Z,9.35
2024-02-22T04:42:48.785Z,9.38
2024-02-22T04:45:15.733Z,9.42
2024-02-22T04:47:42.837Z,9.45
2024-02-22T04:50:10.636Z,9.40
2024-02-22T04:52:37.708Z,9.37
2024-02-22T04:55:05.355Z,9.36
2024-02-22T04:57:32.803Z,9.35
2024-02-22T04:59:59.618Z,9.32
2024-02-22T05:02:26.660Z,9.31
2024-02-22T05:04:53.756Z,9.30
2024-02-22T05:07:20.614Z,9.30
2024-02-22T05:09:47.371Z,9.31
2024-02-22T05:12:14.286Z,9.33
2024-02-22T05:14:45.712Z,9.36
2024-02-22T05:17:15.943Z,9.35
2024-02-22T05:19:42.790Z,9.35
2024-02-22T05:22:09.766Z,9.32
2024-02-22T05:24:36.665Z,9.33
2024-02-22T05:27:04.204Z,9.33
2024-02-22T05:29:31.187Z,9.35
2024-02-22T05:31:59.166Z,9.34
2024-02-22T05:34:26.800Z,9.33
2024-02-22T05:36:53.934Z,9.26
2024-02-22T05:39:21.069Z,9.18
2024-02-22T05:41:48.409Z,9.17
2024-02-22T05:44:19.569Z,9.20
2024-02-22T05:46:46.519Z,9.24
2024-02-22T05:49:13.432Z,9.27
2024-02-22T05:51:41.536Z,9.28
2024-02-22T05:54:08.385Z,9.30
2024-02-22T05:56:35.227Z,9.32
2024-02-22T05:59:02.058Z,9.27
2024-02-22T06:01:29.121Z,9.27
2024-02-22T06:03:56.055Z,9.25
2024-02-22T06:06:22.940Z,9.24
2024-02-22T06:08:49.772Z,9.24
2024-02-22T06:11:18.585Z,9.27
2024-02-22T06:13:45.728Z,9.27
2024-02-22T06:16:12.948Z,9.31
2024-02-22T06:18:40.036Z,9.36
2024-02-22T06:21:09.282Z,9.34
2024-02-22T06:23:36.059Z,9.34
2024-02-22T06:26:05.457Z,9.45
2024-02-22T06:28:34.976Z,9.55
2024-02-22T06:31:02.501Z,9.62
2024-02-22T06:33:29.738Z,9.65
2024-02-22T06:35:57.226Z,9.65
2024-02-22T06:38:25.023Z,9.70
2024-02-22T06:40:52.436Z,9.76
2024-02-22T06:43:20.059Z,9.78
2024-02-22T06:45:47.338Z,9.79
2024-02-22T06:48:14.642Z,9.79
2024-02-22T06:50:41.596Z,9.76
2024-02-22T06:53:08.883Z,9.73
2024-02-22T06:55:36.163Z,9.74
2024-02-22T06:58:04.350Z,9.71
2024-02-22T07:00:34.162Z,9.63
2024-02-22T07:03:05.384Z,9.60
2024-02-22T07:05:33.167Z,9.57
2024-02-22T07:08:00.309Z,9.57
2024-02-22T07:10:27.379Z,9.59
2024-02-22T07:12:54.515Z,9.59
2024-02-22T07:15:21.514Z,9.67
2024-02-22T07:17:48.714Z,9.76
2024-02-22T07:20:16.354Z,9.83
2024-02-22T07:22:44.378Z,9.90
2024-02-22T07:25:12.585Z,9.96
2024-02-22T07:27:41.075Z,10.01
2024-02-22T07:30:09.899Z,10.06
2024-02-22T07:32:37.666Z,10.10
2024-02-22T07:35:07.088Z,10.13
2024-02-22T07:37:34.807Z,10.16
2024-02-22T07:40:02.067Z,10.16
2024-02-22T07:42:28.971Z,10.18
2024-02-22T07:44:55.797Z,10.19
2024-02-22T07:47:22.701Z,10.24
2024-02-22T07:49:49.587Z,10.26
2024-02-22T07:52:16.525Z,10.27
2024-02-22T07:54:43.566Z,10.20
2024-02-22T07:57:13.707Z,10.19
2024-02-22T07:59:40.540Z,10.26
2024-02-22T08:02:07.486Z,10.28
2024-02-22T08:04:34.553Z,10.26
2024-02-22T08:07:01.620Z,10.20
2024-02-22T08:09:28.617Z,10.23
2024-02-22T08:11:55.599Z,10.28
2024-02-22T08:14:22.575Z,10.31
2024-02-22T08:16:50.140Z,10.34
2024-02-22T08:19:17.122Z,10.35
2024-02-22T08:21:44.010Z,10.38
2024-02-22T08:24:12.277Z,10.42
2024-02-22T08:26:40.030Z,10.42
2024-02-22T08:29:06.997Z,10.43
2024-02-22T08:31:33.891Z,10.46
2024-02-22T08:34:00.952Z,10.53
2024-02-22T08:36:28.097Z,10.60
2024-02-22T08:38:55.253Z,10.64
2024-02-22T08:41:23.731Z,10.65
2024-02-22T08:43:50.670Z,10.66
2024-02-22T08:46:17.528Z,10.73
2024-02-22T08:48:44.569Z,10.79
2024-02-22T08:51:14.660Z,10.82
2024-02-22T08:53:41.613Z,10.83
2024-02-22T08:56:11.372Z,10.86
2024-02-22T08:58:43.243Z,10.86
2024-02-22T09:01:10.982Z,10.84
2024-02-22T09:03:37.964Z,10.82
2024-02-22T09:06:05.332Z,10.86
2024-02-22T09:08:32.659Z,10.91
2024-02-22T09:10:59.804Z,10.92
2024-02-22T09:13:27.022Z,10.96
2024-02-22T09:15:53.924Z,11.02
2024-02-22T09:18:21.506Z,11.09
2024-02-22T09:20:50.007Z,11.14
2024-02-22T09:23:17.916Z,11.17
2024-02-22T09:25:44.964Z,11.18
2024-02-22T09:28:13.054Z,11.21
2024-02-22T09:30:39.945Z,11.23
2024-02-22T09:33:09.154Z,11.31
2024-02-22T09:35:37.829Z,11.36
2024-02-22T09:38:06.508Z,11.39
2024-02-22T09:40:34.946Z,11.38
2024-02-22T09:43:02.427Z,11.39
2024-02-22T09:45:30.297Z,11.39
2024-02-22T09:47:57.740Z,11.40
2024-02-22T09:50:25.810Z,11.40
2024-02-22T09:52:53.073Z,11.39
2024-02-22T09:55:21.119Z,11.39
2024-02-22T09:57:49.739Z,11.40
2024-02-22T10:00:20.058Z,11.41
2024-02-22T10:02:48.355Z,11.43
2024-02-22T10:05:16.562Z,11.43
2024-02-22T10:07:44.397Z,11.45
2024-02-22T10:10:12.644Z,11.48
2024-02-22T10:12:45.941Z,11.50
2024-02-22T10:15:28.433Z,11.52
2024-02-22T10:17:55.603Z,11.52
2024-02-22T10:20:34.894Z,11.57
2024-02-22T10:23:10.025Z,11.59
2024-02-22T10:25:38.020Z,11.60
2024-02-22T10:28:05.913Z,11.61
2024-02-22T10:30:35.661Z,11.64
2024-02-22T10:33:05.914Z,11.66
2024-02-22T10:35:36.040Z,11.68
2024-02-22T10:38:09.192Z,11.69
2024-02-22T10:40:38.376Z,11.67
2024-02-22T10:43:06.376Z,11.67
2024-02-22T10:45:35.025Z,11.64
2024-02-22T10:48:07.236Z,11.63
2024-02-22T10:50:35.508Z,11.64
2024-02-22T10:53:05.290Z,11.70
2024-02-22T10:55:39.886Z,11.73
2024-02-22T10:58:10.147Z,11.75
2024-02-22T11:00:38.856Z,11.80
2024-02-22T11:03:06.155Z,11.79
2024-02-22T11:05:38.559Z,11.74
2024-02-22T11:08:06.080Z,11.74
2024-02-22T11:10:33.142Z,11.74
2024-02-22T11:13:04.978Z,11.71
2024-02-22T11:15:36.277Z,11.69
2024-02-22T11:18:04.335Z,11.64
2024-02-22T11:20:36.327Z,11.63
2024-02-22T11:23:14.619Z,11.63
2024-02-22T11:25:45.823Z,11.62
2024-02-22T11:28:16.549Z,11.62
2024-02-22T11:30:46.178Z,11.64
2024-02-22T11:33:14.059Z,11.65
2024-02-22T11:35:41.927Z,11.66
2024-02-22T11:38:09.304Z,11.73
2024-02-22T11:40:37.003Z,11.83
2024-02-22T11:43:05.626Z,12.00
2024-02-22T11:45:34.577Z,12.13
2024-02-22T11:48:02.879Z,12.35
2024-02-22T11:50:32.030Z,12.81
2024-02-22T11:52:59.990Z,13.40
2024-02-22T11:55:27.468Z,14.12
2024-02-22T11:57:54.436Z,14.28
2024-02-22T12:00:21.703Z,14.08
2024-02-22T12:02:49.026Z,13.78
2024-02-22T12:05:18.999Z,13.60
2024-02-22T12:07:51.280Z,13.47
2024-02-22T12:10:18.626Z,13.26
2024-02-22T12:12:46.129Z,13.05
2024-02-22T12:15:25.538Z,12.85
2024-02-22T12:17:55.062Z,12.75
2024-02-22T12:20:23.918Z,12.69
2024-02-22T12:22:54.865Z,12.63
2024-02-22T12:25:25.172Z,12.55
2024-02-22T12:27:53.994Z,12.53
2024-02-22T12:30:23.881Z,12.51
2024-02-22T12:32:54.056Z,12.41
2024-02-22T12:35:22.591Z,12.39
2024-02-22T12:37:51.148Z,12.37
2024-02-22T12:40:18.690Z,12.37
2024-02-22T12:42:55.403Z,12.38
2024-02-22T12:45:23.353Z,12.38
2024-02-22T12:47:50.991Z,12.34
2024-02-22T12:50:18.393Z,12.35
2024-02-22T12:52:45.671Z,12.31
2024-02-22T12:55:13.080Z,12.29
2024-02-22T12:57:39.912Z,12.28
2024-02-22T13:00:10.336Z,12.28
2024-02-22T13:02:38.319Z,12.23
2024-02-22T13:05:06.980Z,12.15
2024-02-22T13:07:34.776Z,12.11
2024-02-22T13:10:02.577Z,12.12
2024-02-22T13:12:32.097Z,12.07
2024-02-22T13:14:58.976Z,12.05
2024-02-22T13:17:25.930Z,12.07
2024-02-22T13:19:53.058Z,12.05
2024-02-22T13:22:20.023Z,12.03
2024-02-22T13:24:46.943Z,12.01
2024-02-22T13:27:16.410Z,11.96
2024-02-22T13:29:47.194Z,11.95
2024-02-22T13:32:14.616Z,11.91
2024-02-22T13:34:41.941Z,11.87
2024-02-22T13:37:09.024Z,11.85
2024-02-22T13:39:36.045Z,11.80
2024-02-22T13:42:03.118Z,11.74
2024-02-22T13:44:31.602Z,11.73
2024-02-22T13:46:59.252Z,11.73
2024-02-22T13:49:26.662Z,11.72
2024-02-22T13:52:04.401Z,11.71
2024-02-22T13:54:39.153Z,11.66
2024-02-22T13:57:06.124Z,11.66
2024-02-22T13:59:33.361Z,11.66
2024-02-22T14:02:00.489Z,11.68
2024-02-22T14:04:27.562Z,11.71
2024-02-22T14:06:54.729Z,11.75
2024-02-22T14:09:21.592Z,11.82
2024-02-22T14:11:48.644Z,11.84
2024-02-22T14:14:15.743Z,11.85
2024-02-22T14:16:43.619Z,11.92
2024-02-22T14:19:10.830Z,11.97
2024-02-22T14:21:37.728Z,11.94
2024-02-22T14:24:06.924Z,11.96
2024-02-22T14:26:33.902Z,11.97
2024-02-22T14:29:01.186Z,11.98
2024-02-22T14:31:28.073Z,11.95
2024-02-22T14:33:55.396Z,11.93
2024-02-22T14:36:22.824Z,11.92
2024-02-22T14:38:52.095Z,11.92
2024-02-22T14:41:19.180Z,11.92
2024-02-22T14:43:46.179Z,11.90
2024-02-22T14:46:14.016Z,11.89
2024-02-22T14:48:44.482Z,11.88
2024-02-22T14:51:11.644Z,11.87
2024-02-22T14:53:41.609Z,11.85
2024-02-22T14:56:09.565Z,11.84
2024-02-22T14:58:36.594Z,11.82
2024-02-22T15:01:03.714Z,11.79
2024-02-22T15:03:31.850Z,11.81
2024-02-22T15:06:00.109Z,11.81
2024-02-22T15:08:28.343Z,11.76
2024-02-22T15:10:55.335Z,11.75
2024-02-22T15:13:22.290Z,11.68
2024-02-22T15:15:49.142Z,11.68
2024-02-22T15:18:16.294Z,11.70
2024-02-22T15:20:43.314Z,11.71
2024-02-22T15:23:10.257Z,11.65
2024-02-22T15:25:37.520Z,11.60
2024-02-22T15:28:04.733Z,11.54
2024-02-22T15:30:31.657Z,11.51
2024-02-22T15:32:59.551Z,11.49
2024-02-22T15:35:29.077Z,11.49
2024-02-22T15:37:56.163Z,11.46
2024-02-22T15:40:23.137Z,11.45
2024-02-22T15:42:52.018Z,11.41
2024-02-22T15:45:19.012Z,11.39
2024-02-22T15:47:48.485Z,11.41
2024-02-22T15:50:16.328Z,11.40
2024-02-22T15:52:44.016Z,11.39
2024-02-22T15:55:11.062Z,11.37
2024-02-22T15:57:37.972Z,11.36
2024-02-22T16:00:09.204Z,11.36
2024-02-22T16:02:38.144Z,11.33
2024-02-22T16:05:06.636Z,11.30
2024-02-22T16:07:33.745Z,11.29
2024-02-22T16:10:01.123Z,11.26
2024-02-22T16:12:28.417Z,11.24
2024-02-22T16:14:56.788Z,11.22
2024-02-22T16:17:23.810Z,11.25
2024-02-22T16:19:50.858Z,11.24
2024-02-22T16:22:18.037Z,11.18
2024-02-22T16:24:45.227Z,11.15
2024-02-22T16:27:12.239Z,11.08
2024-02-22T16:29:42.165Z,11.07
2024-02-22T16:32:11.241Z,11.05
2024-02-22T16:34:40.167Z,11.05
2024-02-22T16:37:13.942Z,11.06
2024-02-22T16:39:45.141Z,11.06
2024-02-22T16:42:13.062Z,11.07
2024-02-22T16:44:44.260Z,11.06
2024-02-22T16:47:15.657Z,11.04
2024-02-22T16:49:43.766Z,11.04
2024-02-22T16:52:10.785Z,11.03
2024-02-22T16:54:38.552Z,11.04
2024-02-22T16:57:06.734Z,11.03
2024-02-22T16:59:33.810Z,11.02
2024-02-22T17:02:00.900Z,11.02
2024-02-22T17:04:27.813Z,11.02
2024-02-22T17:06:59.491Z,11.02
2024-02-22T17:09:28.101Z,11.00
2024-02-22T17:11:56.763Z,10.98
2024-02-22T17:14:24.580Z,10.96
2024-02-22T17:16:53.452Z,10.97
2024-02-22T17:19:20.596Z,10.97
2024-02-22T17:21:49.586Z,10.99
2024-02-22T17:24:19.572Z,11.01
2024-02-22T17:26:46.542Z,11.01
2024-02-22T17:29:13.614Z,11.02
2024-02-22T17:31:40.700Z,11.03
2024-02-22T17:34:07.764Z,11.05
2024-02-22T17:36:34.696Z,11.05
2024-02-22T17:39:01.563Z,11.06
2024-02-22T17:41:28.699Z,11.10
2024-02-22T17:43:56.608Z,11.10
2024-02-22T17:46:26.843Z,11.11
2024-02-22T17:48:55.915Z,11.14
2024-02-22T17:51:22.968Z,11.13
2024-02-22T17:53:50.706Z,11.13
2024-02-22T17:56:17.767Z,11.12
2024-02-22T17:58:51.415Z,11.14
2024-02-22T18:01:24.900Z,11.12
2024-02-22T18:03:51.912Z,11.15
2024-02-22T18:06:19.319Z,11.15
2024-02-22T18:08:46.601Z,11.15
2024-02-22T18:11:13.640Z,11.16
2024-02-22T18:13:40.638Z,11.17
2024-02-22T18:16:07.959Z,11.17
2024-02-22T18:18:36.402Z,11.16
2024-02-22T18:21:04.438Z,11.18
2024-02-22T18:23:31.461Z,11.17
2024-02-22T18:25:58.463Z,11.17
2024-02-22T18:28:25.419Z,11.22
2024-02-22T18:30:55.311Z,11.23
2024-02-22T18:33:26.273Z,11.23
2024-02-22T18:35:54.462Z,11.30
2024-02-22T18:38:21.459Z,11.31
2024-02-22T18:40:48.444Z,11.33
2024-02-22T18:43:16.070Z,11.38
2024-02-22T18:45:43.084Z,11.42
2024-02-22T18:48:13.542Z,11.46
2024-02-22T18:50:43.711Z,11.51
2024-02-22T18:53:10.971Z,11.58
2024-02-22T18:55:41.079Z,11.62
2024-02-22T18:58:09.048Z,11.63
2024-02-22T19:00:40.326Z,11.69
2024-02-22T19:03:11.257Z,11.69
2024-02-22T19:05:39.682Z,11.66
2024-02-22T19:08:08.399Z,11.68
2024-02-22T19:10:39.675Z,11.75
2024-02-22T19:13:06.995Z,11.79
2024-02-22T19:15:33.929Z,11.85
2024-02-22T19:18:01.004Z,11.87
2024-02-22T19:20:28.113Z,11.83
2024-02-22T19:22:55.438Z,11.84
2024-02-22T19:25:22.622Z,11.92
2024-02-22T19:27:49.557Z,11.95
2024-02-22T19:30:16.701Z,11.92
2024-02-22T19:32:45.017Z,11.91
2024-02-22T19:35:19.442Z,12.02
2024-02-22T19:37:48.337Z,12.07
2024-02-22T19:40:18.551Z,12.20
2024-02-22T19:42:46.021Z,12.23
2024-02-22T19:45:14.205Z,12.16
2024-02-22T19:47:41.524Z,11.99
2024-02-22T19:50:10.381Z,11.50
2024-02-22T19:52:38.476Z,11.05
2024-02-22T19:55:06.013Z,10.67
2024-02-22T19:57:35.338Z,10.39
2024-02-22T20:00:06.100Z,10.22
2024-02-22T20:02:34.629Z,10.17
2024-02-22T20:05:01.760Z,10.22
2024-02-22T20:07:31.424Z,10.25
2024-02-22T20:10:03.553Z,10.27
2024-02-22T20:12:31.847Z,10.28
2024-02-22T20:14:58.900Z,10.31
2024-02-22T20:17:27.558Z,10.30
2024-02-22T20:19:54.749Z,10.29
2024-02-22T20:22:21.669Z,10.31
2024-02-22T20:24:48.564Z,10.31
2024-02-22T20:27:15.777Z,10.33
2024-02-22T20:29:42.621Z,10.33
2024-02-22T20:32:10.398Z,10.31
2024-02-22T20:34:37.759Z,10.32
2024-02-22T20:37:04.923Z,10.31
2024-02-22T20:39:31.855Z,10.33
2024-02-22T20:41:58.720Z,10.33
2024-02-22T20:44:25.799Z,10.32
2024-02-22T20:46:53.748Z,10.30
2024-02-22T20:49:23.750Z,10.31
2024-02-22T20:51:51.772Z,10.29
2024-02-22T20:54:20.560Z,10.29
2024-02-22T20:56:47.639Z,10.29
2024-02-22T20:59:14.914Z,10.30
2024-02-22T21:01:41.903Z,10.32
2024-02-22T21:04:08.803Z,10.30
2024-02-22T21:06:35.983Z,10.29
2024-02-22T21:09:04.740Z,10.32
2024-02-22T21:11:33.276Z,10.31
2024-02-22T21:14:00.433Z,10.26
2024-02-22T21:16:31.812Z,10.25
2024-02-22T21:19:00.019Z,10.19
2024-02-22T21:21:27.001Z,10.13
2024-02-22T21:23:54.779Z,10.08
2024-02-22T21:26:25.029Z,10.04
2024-02-22T21:28:52.504Z,10.00
2024-02-22T21:31:19.820Z,10.01
2024-02-22T21:33:46.706Z,9.95
2024-02-22T21:36:13.710Z,9.89
2024-02-22T21:38:40.754Z,9.85
2024-02-22T21:41:09.418Z,9.83
2024-02-22T21:43:37.023Z,9.77
2024-02-22T21:46:04.144Z,9.75
2024-02-22T21:48:34.321Z,9.75
2024-02-22T21:51:09.024Z,9.67
2024-02-22T21:53:36.589Z,9.61
2024-02-22T21:56:08.159Z,9.44
2024-02-22T21:58:36.670Z,9.00
2024-02-22T22:01:07.152Z,8.69
2024-02-22T22:03:34.757Z,8.51
2024-02-22T22:06:02.252Z,8.32
2024-02-22T22:08:30.339Z,8.32
2024-02-22T22:10:57.329Z,8.30
2024-02-22T22:13:24.729Z,8.19
2024-02-22T22:15:51.973Z,8.18
2024-02-22T22:18:22.153Z,8.14
2024-02-22T22:20:49.293Z,8.15
2024-02-22T22:23:16.214Z,8.15
2024-02-22T22:25:43.431Z,8.20
2024-02-22T22:28:10.745Z,8.17
2024-02-22T22:30:38.475Z,8.16
2024-02-22T22:33:10.920Z,8.15
2024-02-22T22:35:38.520Z,8.18
2024-02-22T22:38:05.474Z,8.11
2024-02-22T22:40:32.494Z,8.04
2024-02-22T22:42:59.425Z,8.02
2024-02-22T22:45:26.876Z,7.98
2024-02-22T22:47:55.823Z,7.98
2024-02-22T22:50:23.025Z,7.89
2024-02-22T22:52:49.981Z,7.81
2024-02-22T22:55:17.423Z,7.84
2024-02-22T22:57:44.677Z,7.88
2024-02-22T23:00:22.177Z,7.81
2024-02-22T23:02:53.550Z,7.71
2024-02-22T23:05:20.538Z,7.73
2024-02-22T23:07:50.252Z,7.76
2024-02-22T23:10:17.578Z,7.66
2024-02-22T23:12:45.117Z,7.70
2024-02-22T23:15:12.070Z,7.70
2024-02-22T23:17:39.155Z,7.76
2024-02-22T23:20:07.392Z,7.75
2024-02-22T23:22:34.296Z,7.71
2024-02-22T23:25:01.442Z,7.75
2024-02-22T23:27:28.338Z,7.79
2024-02-22T23:29:55.375Z,7.72
2024-02-22T23:32:22.298Z,7.70
2024-02-22T23:34:49.282Z,7.71
2024-02-22T23:37:16.280Z,7.79
2024-02-22T23:39:45.646Z,7.80
2024-02-22T23:42:16.027Z,7.77
2024-02-22T23:44:43.243Z,7.80
2024-02-22T23:47:10.311Z,7.84
2024-02-22T23:49:37.242Z,7.84
2024-02-22T23:52:04.488Z,7.83
2024-02-22T23:54:31.413Z,7.76
2024-02-22T23:56:58.390Z,7.71
2024-02-22T23:59:26.289Z,7.69
